sensor_id;sensor_type;location;lat;lon;timestamp;pressure;altitude;pressure_sealevel;temperature;humidity
68807;BME280;55800;54.272;18.558;2023-04-12T00:00:04;100347.31;;;9.09;60.79
68807;BME280;55800;54.272;18.558;2023-04-12T00:02:56;100357.03;;;9.10;61.42
68807;BME280;55800;54.272;18.558;2023-04-12T00:05:30;100346.44;;;9.09;59.88
68807;BME280;55800;54.272;18.558;2023-04-12T00:08:00;100344.81;;;9.05;60.37
68807;BME280;55800;54.272;18.558;2023-04-12T00:10:31;100341.44;;;9.00;60.00
68807;BME280;55800;54.272;18.558;2023-04-12T00:13:00;100337.25;;;8.94;59.64
68807;BME280;55800;54.272;18.558;2023-04-12T00:15:30;100336.28;;;8.95;60.22
68807;BME280;55800;54.272;18.558;2023-04-12T00:18:00;100348.78;;;8.95;60.35
68807;BME280;55800;54.272;18.558;2023-04-12T00:20:29;100345.25;;;8.94;59.88
68807;BME280;55800;54.272;18.558;2023-04-12T00:23:00;100343.25;;;8.99;60.63
68807;BME280;55800;54.272;18.558;2023-04-12T00:25:29;100336.25;;;8.97;60.19
68807;BME280;55800;54.272;18.558;2023-04-12T00:27:58;100337.06;;;8.99;59.41
68807;BME280;55800;54.272;18.558;2023-04-12T00:30:27;100346.13;;;8.95;60.08
68807;BME280;55800;54.272;18.558;2023-04-12T00:32:57;100335.63;;;8.90;62.59
68807;BME280;55800;54.272;18.558;2023-04-12T00:35:26;100339.09;;;8.92;63.75
68807;BME280;55800;54.272;18.558;2023-04-12T00:37:55;100343.50;;;8.93;62.57
68807;BME280;55800;54.272;18.558;2023-04-12T00:40:26;100339.22;;;8.89;63.80
68807;BME280;55800;54.272;18.558;2023-04-12T00:42:56;100342.81;;;8.88;64.53
68807;BME280;55800;54.272;18.558;2023-04-12T00:45:26;100336.78;;;8.83;64.30
68807;BME280;55800;54.272;18.558;2023-04-12T00:47:55;100335.88;;;8.84;63.87
68807;BME280;55800;54.272;18.558;2023-04-12T00:50:24;100335.19;;;8.79;64.22
68807;BME280;55800;54.272;18.558;2023-04-12T00:52:53;100329.03;;;8.77;64.95
68807;BME280;55800;54.272;18.558;2023-04-12T00:55:23;100330.09;;;8.73;62.60
68807;BME280;55800;54.272;18.558;2023-04-12T00:57:53;100332.06;;;8.68;61.82
68807;BME280;55800;54.272;18.558;2023-04-12T01:00:22;100331.88;;;8.73;64.03
68807;BME280;55800;54.272;18.558;2023-04-12T01:02:51;100328.72;;;8.85;64.02
68807;BME280;55800;54.272;18.558;2023-04-12T01:05:22;100321.84;;;8.79;64.55
68807;BME280;55800;54.272;18.558;2023-04-12T01:07:59;100327.41;;;8.73;64.36
68807;BME280;55800;54.272;18.558;2023-04-12T01:10:36;100327.41;;;8.73;63.16
68807;BME280;55800;54.272;18.558;2023-04-12T01:13:13;100336.50;;;8.68;63.53
68807;BME280;55800;54.272;18.558;2023-04-12T01:15:46;100332.06;;;8.68;63.94
68807;BME280;55800;54.272;18.558;2023-04-12T01:18:20;100325.09;;;8.64;61.81
68807;BME280;55800;54.272;18.558;2023-04-12T01:20:52;100322.50;;;8.62;62.73
68807;BME280;55800;54.272;18.558;2023-04-12T01:23:29;100326.06;;;8.63;63.09
68807;BME280;55800;54.272;18.558;2023-04-12T01:26:09;100329.63;;;8.62;63.11
68807;BME280;55800;54.272;18.558;2023-04-12T01:28:41;100323.38;;;8.63;64.29
68807;BME280;55800;54.272;18.558;2023-04-12T01:31:11;100329.69;;;8.60;65.16
68807;BME280;55800;54.272;18.558;2023-04-12T01:33:42;100330.59;;;8.59;64.84
68807;BME280;55800;54.272;18.558;2023-04-12T01:36:14;100336.81;;;8.60;65.21
68807;BME280;55800;54.272;18.558;2023-04-12T01:38:44;100336.09;;;8.55;63.22
68807;BME280;55800;54.272;18.558;2023-04-12T01:41:14;100336.91;;;8.57;65.27
68807;BME280;55800;54.272;18.558;2023-04-12T01:43:45;100332.47;;;8.57;64.30
68807;BME280;55800;54.272;18.558;2023-04-12T01:46:17;100328.91;;;8.57;63.89
68807;BME280;55800;54.272;18.558;2023-04-12T01:48:48;100329.97;;;8.53;64.56
68807;BME280;55800;54.272;18.558;2023-04-12T01:51:19;100331.72;;;8.54;65.17
68807;BME280;55800;54.272;18.558;2023-04-12T01:53:56;100333.69;;;8.49;64.43
68807;BME280;55800;54.272;18.558;2023-04-12T01:56:28;100330.13;;;8.48;65.48
68807;BME280;55800;54.272;18.558;2023-04-12T01:58:59;100328.50;;;8.46;64.96
68807;BME280;55800;54.272;18.558;2023-04-12T02:01:31;100324.88;;;8.47;66.13
68807;BME280;55800;54.272;18.558;2023-04-12T02:04:00;100317.94;;;8.43;63.07
68807;BME280;55800;54.272;18.558;2023-04-12T02:06:31;100323.50;;;8.37;62.87
68807;BME280;55800;54.272;18.558;2023-04-12T02:09:01;100328.13;;;8.32;63.50
68807;BME280;55800;54.272;18.558;2023-04-12T02:11:33;100330.75;;;8.33;61.66
68807;BME280;55800;54.272;18.558;2023-04-12T02:14:03;100326.41;;;8.31;61.67
68807;BME280;55800;54.272;18.558;2023-04-12T02:16:33;100320.03;;;8.35;63.02
68807;BME280;55800;54.272;18.558;2023-04-12T02:19:04;100319.06;;;8.36;61.55
68807;BME280;55800;54.272;18.558;2023-04-12T02:21:38;100323.59;;;8.34;62.80
68807;BME280;55800;54.272;18.558;2023-04-12T02:24:07;100313.88;;;8.33;61.32
68807;BME280;55800;54.272;18.558;2023-04-12T02:26:37;100316.59;;;8.31;61.27
68807;BME280;55800;54.272;18.558;2023-04-12T02:29:10;100325.44;;;8.32;61.24
68807;BME280;55800;54.272;18.558;2023-04-12T02:31:40;100314.56;;;8.38;62.83
68807;BME280;55800;54.272;18.558;2023-04-12T02:34:11;100318.56;;;8.49;62.33
68807;BME280;55800;54.272;18.558;2023-04-12T02:36:50;100321.41;;;8.45;64.75
68807;BME280;55800;54.272;18.558;2023-04-12T02:39:19;100319.69;;;8.44;64.87
68807;BME280;55800;54.272;18.558;2023-04-12T02:41:51;100318.25;;;8.57;65.62
68807;BME280;55800;54.272;18.558;2023-04-12T02:44:21;100329.72;;;8.59;63.43
68807;BME280;55800;54.272;18.558;2023-04-12T02:47:26;100320.53;;;8.44;64.34
68807;BME280;55800;54.272;18.558;2023-04-12T02:49:59;100325.00;;;8.44;64.20
68807;BME280;55800;54.272;18.558;2023-04-12T02:55:07;100332.47;;;8.34;64.77
68807;BME280;55800;54.272;18.558;2023-04-12T02:57:36;100340.34;;;8.37;63.73
68807;BME280;55800;54.272;18.558;2023-04-12T03:00:09;100340.34;;;8.37;62.94
68807;BME280;55800;54.272;18.558;2023-04-12T03:02:42;100344.81;;;8.37;62.97
68807;BME280;55800;54.272;18.558;2023-04-12T03:05:21;100340.34;;;8.37;64.25
68807;BME280;55800;54.272;18.558;2023-04-12T03:07:51;100330.44;;;8.41;65.00
68807;BME280;55800;54.272;18.558;2023-04-12T03:10:26;100326.09;;;8.38;65.49
68807;BME280;55800;54.272;18.558;2023-04-12T03:13:02;100329.69;;;8.37;65.94
68807;BME280;55800;54.272;18.558;2023-04-12T03:15:36;100330.69;;;8.35;65.36
68807;BME280;55800;54.272;18.558;2023-04-12T03:18:06;100331.34;;;8.40;66.00
68807;BME280;55800;54.272;18.558;2023-04-12T03:20:43;100326.00;;;8.41;67.22
68807;BME280;55800;54.272;18.558;2023-04-12T03:23:16;100324.25;;;8.40;66.99
68807;BME280;55800;54.272;18.558;2023-04-12T03:25:52;100319.03;;;8.37;66.27
68807;BME280;55800;54.272;18.558;2023-04-12T03:28:33;100322.78;;;8.32;66.22
68807;BME280;55800;54.272;18.558;2023-04-12T03:31:06;100327.31;;;8.30;66.74
68807;BME280;55800;54.272;18.558;2023-04-12T03:33:45;100326.56;;;8.26;67.21
68807;BME280;55800;54.272;18.558;2023-04-12T03:36:23;100330.13;;;8.25;66.27
68807;BME280;55800;54.272;18.558;2023-04-12T03:39:12;100323.94;;;8.25;66.38
68807;BME280;55800;54.272;18.558;2023-04-12T03:41:43;100318.50;;;8.28;65.75
68807;BME280;55800;54.272;18.558;2023-04-12T03:44:13;100319.56;;;8.22;64.86
68807;BME280;55800;54.272;18.558;2023-04-12T03:46:43;100318.56;;;8.26;66.65
68807;BME280;55800;54.272;18.558;2023-04-12T03:49:13;100306.13;;;8.27;66.46
68807;BME280;55800;54.272;18.558;2023-04-12T03:51:46;100310.34;;;8.32;66.91
68807;BME280;55800;54.272;18.558;2023-04-12T03:54:17;100306.88;;;8.30;66.75
68807;BME280;55800;54.272;18.558;2023-04-12T03:56:58;100308.56;;;8.33;64.97
68807;BME280;55800;54.272;18.558;2023-04-12T03:59:36;100314.16;;;8.25;66.02
68807;BME280;55800;54.272;18.558;2023-04-12T04:02:07;100321.28;;;8.25;66.62
68807;BME280;55800;54.272;18.558;2023-04-12T04:04:43;100310.66;;;8.23;66.43
68807;BME280;55800;54.272;18.558;2023-04-12T04:07:20;100319.56;;;8.22;66.75
68807;BME280;55800;54.272;18.558;2023-04-12T04:09:52;100315.56;;;8.35;66.31
68807;BME280;55800;54.272;18.558;2023-04-12T04:12:25;100318.50;;;8.28;65.29
68807;BME280;55800;54.272;18.558;2023-04-12T04:14:55;100325.69;;;8.26;66.48
68807;BME280;55800;54.272;18.558;2023-04-12T04:17:34;100320.38;;;8.24;65.75
68807;BME280;55800;54.272;18.558;2023-04-12T04:20:04;100314.69;;;8.35;65.89
68807;BME280;55800;54.272;18.558;2023-04-12T04:22:38;100305.91;;;8.33;66.52
68807;BME280;55800;54.272;18.558;2023-04-12T04:25:09;100309.63;;;8.27;64.60
68807;BME280;55800;54.272;18.558;2023-04-12T04:27:43;100308.78;;;8.27;64.54
68807;BME280;55800;54.272;18.558;2023-04-12T04:30:13;100308.72;;;8.28;66.25
68807;BME280;55800;54.272;18.558;2023-04-12T04:32:47;100305.09;;;8.31;66.45
68807;BME280;55800;54.272;18.558;2023-04-12T04:35:20;100310.50;;;8.28;63.81
68807;BME280;55800;54.272;18.558;2023-04-12T04:38:16;100318.50;;;8.28;64.38
68807;BME280;55800;54.272;18.558;2023-04-12T04:40:49;100306.97;;;8.27;63.88
68807;BME280;55800;54.272;18.558;2023-04-12T04:43:23;100325.44;;;8.32;63.91
68807;BME280;55800;54.272;18.558;2023-04-12T04:45:59;100320.91;;;8.35;65.04
68807;BME280;55800;54.272;18.558;2023-04-12T04:48:30;100319.06;;;8.36;64.27
68807;BME280;55800;54.272;18.558;2023-04-12T04:50:59;100313.66;;;8.39;65.92
68807;BME280;55800;54.272;18.558;2023-04-12T04:53:29;100309.88;;;8.44;64.49
68807;BME280;55800;54.272;18.558;2023-04-12T04:55:59;100317.69;;;8.49;64.58
68807;BME280;55800;54.272;18.558;2023-04-12T04:58:33;100307.19;;;8.46;65.80
68807;BME280;55800;54.272;18.558;2023-04-12T05:01:02;100315.97;;;8.48;63.96
68807;BME280;55800;54.272;18.558;2023-04-12T05:03:33;100316.78;;;8.50;64.25
68807;BME280;55800;54.272;18.558;2023-04-12T05:06:05;100308.78;;;8.50;64.17
68807;BME280;55800;54.272;18.558;2023-04-12T05:08:35;100313.19;;;8.51;63.57
68807;BME280;55800;54.272;18.558;2023-04-12T05:11:05;100314.88;;;8.53;63.53
68807;BME280;55800;54.272;18.558;2023-04-12T05:13:34;100313.88;;;8.56;64.32
68807;BME280;55800;54.272;18.558;2023-04-12T05:16:04;100310.97;;;8.62;65.23
68807;BME280;55800;54.272;18.558;2023-04-12T05:18:36;100307.97;;;8.71;66.17
68807;BME280;55800;54.272;18.558;2023-04-12T05:21:05;100309.44;;;8.78;67.00
68807;BME280;55800;54.272;18.558;2023-04-12T05:23:35;100306.97;;;8.95;66.13
68807;BME280;55800;54.272;18.558;2023-04-12T05:26:05;100311.25;;;8.99;66.73
68807;BME280;55800;54.272;18.558;2023-04-12T05:28:34;100324.47;;;9.02;66.35
68807;BME280;55800;54.272;18.558;2023-04-12T05:31:04;100315.66;;;9.00;67.93
68807;BME280;55800;54.272;18.558;2023-04-12T05:33:38;100318.88;;;9.08;67.54
68807;BME280;55800;54.272;18.558;2023-04-12T05:36:08;100315.13;;;9.14;66.93
68807;BME280;55800;54.272;18.558;2023-04-12T05:38:40;100320.75;;;9.06;68.15
68807;BME280;55800;54.272;18.558;2023-04-12T05:41:12;100317.72;;;9.15;68.44
68807;BME280;55800;54.272;18.558;2023-04-12T05:43:41;100320.13;;;9.21;67.03
68807;BME280;55800;54.272;18.558;2023-04-12T05:46:10;100319.31;;;9.19;66.47
68807;BME280;55800;54.272;18.558;2023-04-12T05:48:42;100319.13;;;9.24;67.75
68807;BME280;55800;54.272;18.558;2023-04-12T05:51:12;100318.50;;;9.39;67.91
68807;BME280;55800;54.272;18.558;2023-04-12T05:53:41;100324.22;;;9.50;67.35
68807;BME280;55800;54.272;18.558;2023-04-12T05:56:12;100331.41;;;9.50;67.60
68807;BME280;55800;54.272;18.558;2023-04-12T05:58:43;100329.66;;;9.49;67.50
68807;BME280;55800;54.272;18.558;2023-04-12T06:01:12;100324.03;;;9.55;66.21
68807;BME280;55800;54.272;18.558;2023-04-12T06:03:44;100322.31;;;9.54;65.74
68807;BME280;55800;54.272;18.558;2023-04-12T06:06:17;100316.66;;;9.61;64.87
68807;BME280;55800;54.272;18.558;2023-04-12T06:08:47;100323.28;;;9.73;65.58
68807;BME280;55800;54.272;18.558;2023-04-12T06:11:16;100319.38;;;9.80;65.22
68807;BME280;55800;54.272;18.558;2023-04-12T06:13:45;100311.19;;;9.84;65.45
68807;BME280;55800;54.272;18.558;2023-04-12T06:16:14;100317.28;;;9.88;64.98
68807;BME280;55800;54.272;18.558;2023-04-12T06:18:48;100316.06;;;9.95;64.29
68807;BME280;55800;54.272;18.558;2023-04-12T06:21:17;100316.72;;;10.00;65.73
68807;BME280;55800;54.272;18.558;2023-04-12T06:23:47;100316.44;;;10.06;66.20
68807;BME280;55800;54.272;18.558;2023-04-12T06:26:17;100309.16;;;10.11;65.59
68807;BME280;55800;54.272;18.558;2023-04-12T06:28:47;100324.69;;;10.22;65.02
68807;BME280;55800;54.272;18.558;2023-04-12T06:31:17;100319.16;;;10.26;65.11
68807;BME280;55800;54.272;18.558;2023-04-12T06:33:47;100327.75;;;10.33;64.49
68807;BME280;55800;54.272;18.558;2023-04-12T06:36:17;100321.25;;;10.38;64.18
68807;BME280;55800;54.272;18.558;2023-04-12T06:38:46;100323.50;;;10.47;64.26
68807;BME280;55800;54.272;18.558;2023-04-12T06:41:18;100325.81;;;10.55;64.13
68807;BME280;55800;54.272;18.558;2023-04-12T06:43:54;100328.16;;;10.62;64.01
68807;BME280;55800;54.272;18.558;2023-04-12T06:46:26;100331.47;;;10.67;63.96
68807;BME280;55800;54.272;18.558;2023-04-12T06:48:57;100334.72;;;10.74;63.79
68807;BME280;55800;54.272;18.558;2023-04-12T06:51:27;100332.63;;;10.80;63.71
68807;BME280;55800;54.272;18.558;2023-04-12T06:53:56;100331.63;;;10.83;63.58
68807;BME280;55800;54.272;18.558;2023-04-12T06:56:25;100333.19;;;10.87;63.53
68807;BME280;55800;54.272;18.558;2023-04-12T06:58:55;100340.25;;;10.88;63.52
68807;BME280;55800;54.272;18.558;2023-04-12T07:01:25;100335.66;;;10.91;63.17
68807;BME280;55800;54.272;18.558;2023-04-12T07:03:55;100333.91;;;10.90;62.95
68807;BME280;55800;54.272;18.558;2023-04-12T07:06:27;100331.22;;;10.90;62.82
68807;BME280;55800;54.272;18.558;2023-04-12T07:08:57;100338.25;;;10.93;62.86
68807;BME280;55800;54.272;18.558;2023-04-12T07:11:26;100334.69;;;10.92;63.08
68807;BME280;55800;54.272;18.558;2023-04-12T07:13:59;100335.50;;;10.94;62.98
68807;BME280;55800;54.272;18.558;2023-04-12T07:16:28;100334.56;;;10.95;62.90
68807;BME280;55800;54.272;18.558;2023-04-12T07:18:58;100338.13;;;10.96;62.67
68807;BME280;55800;54.272;18.558;2023-04-12T07:21:29;100331.72;;;10.98;62.62
68807;BME280;55800;54.272;18.558;2023-04-12T07:23:58;100327.34;;;10.97;63.20
68807;BME280;55800;54.272;18.558;2023-04-12T07:26:28;100328.13;;;10.99;62.80
68807;BME280;55800;54.272;18.558;2023-04-12T07:28:57;100338.69;;;11.03;62.59
68807;BME280;55800;54.272;18.558;2023-04-12T07:31:27;100330.72;;;11.01;63.12
68807;BME280;55800;54.272;18.558;2023-04-12T07:33:57;100329.72;;;11.04;63.04
68807;BME280;55800;54.272;18.558;2023-04-12T07:36:26;100333.09;;;11.07;62.88
68807;BME280;55800;54.272;18.558;2023-04-12T07:38:57;100333.03;;;11.09;62.70
68807;BME280;55800;54.272;18.558;2023-04-12T07:41:26;100331.16;;;11.11;62.96
68807;BME280;55800;54.272;18.558;2023-04-12T07:43:56;100332.88;;;11.12;63.08
68807;BME280;55800;54.272;18.558;2023-04-12T07:46:24;100328.53;;;11.09;64.42
68807;BME280;55800;54.272;18.558;2023-04-12T07:48:54;100328.47;;;11.11;63.84
68807;BME280;55800;54.272;18.558;2023-04-12T07:51:23;100326.69;;;11.11;63.48
68807;BME280;55800;54.272;18.558;2023-04-12T07:53:53;100323.75;;;11.16;64.18
68807;BME280;55800;54.272;18.558;2023-04-12T07:56:24;100326.59;;;11.13;64.60
68807;BME280;55800;54.272;18.558;2023-04-12T07:58:55;100315.81;;;11.14;64.35
68807;BME280;55800;54.272;18.558;2023-04-12T08:01:24;100319.28;;;11.16;66.09
68807;BME280;55800;54.272;18.558;2023-04-12T08:03:53;100315.50;;;11.20;64.37
68807;BME280;55800;54.272;18.558;2023-04-12T08:06:23;100321.28;;;11.30;64.67
68807;BME280;55800;54.272;18.558;2023-04-12T08:08:57;100326.56;;;11.31;64.62
68807;BME280;55800;54.272;18.558;2023-04-12T08:11:28;100320.81;;;11.39;64.57
68807;BME280;55800;54.272;18.558;2023-04-12T08:13:57;100311.53;;;11.46;64.39
68807;BME280;55800;54.272;18.558;2023-04-12T08:16:26;100305.72;;;11.55;63.79
68807;BME280;55800;54.272;18.558;2023-04-12T08:18:56;100299.91;;;11.64;64.29
68807;BME280;55800;54.272;18.558;2023-04-12T08:21:24;100296.88;;;11.71;63.84
68807;BME280;55800;54.272;18.558;2023-04-12T08:23:54;100302.63;;;11.81;63.78
68807;BME280;55800;54.272;18.558;2023-04-12T08:26:24;100301.34;;;11.88;63.71
68807;BME280;55800;54.272;18.558;2023-04-12T08:28:57;100300.97;;;11.96;63.83
68807;BME280;55800;54.272;18.558;2023-04-12T08:31:26;100299.44;;;12.07;63.71
68807;BME280;55800;54.272;18.558;2023-04-12T08:33:56;100283.88;;;12.14;63.43
68807;BME280;55800;54.272;18.558;2023-04-12T08:36:26;100298.72;;;12.21;63.60
68807;BME280;55800;54.272;18.558;2023-04-12T08:38:57;100291.03;;;12.30;63.49
68807;BME280;55800;54.272;18.558;2023-04-12T08:41:26;100294.47;;;12.32;63.37
68807;BME280;55800;54.272;18.558;2023-04-12T08:43:56;100293.38;;;12.36;63.30
68807;BME280;55800;54.272;18.558;2023-04-12T08:46:27;100289.66;;;12.39;63.23
68807;BME280;55800;54.272;18.558;2023-04-12T08:48:56;100297.13;;;12.49;63.04
68807;BME280;55800;54.272;18.558;2023-04-12T08:51:25;100290.03;;;12.48;62.97
68807;BME280;55800;54.272;18.558;2023-04-12T08:53:55;100293.50;;;12.50;62.96
68807;BME280;55800;54.272;18.558;2023-04-12T08:56:24;100288.56;;;12.59;63.54
68807;BME280;55800;54.272;18.558;2023-04-12T08:58:54;100286.75;;;12.59;63.16
68807;BME280;55800;54.272;18.558;2023-04-12T09:01:24;100287.09;;;12.69;63.02
68807;BME280;55800;54.272;18.558;2023-04-12T09:03:54;100284.94;;;12.75;63.07
68807;BME280;55800;54.272;18.558;2023-04-12T09:06:24;100292.66;;;12.81;63.00
68807;BME280;55800;54.272;18.558;2023-04-12T09:08:54;100285.91;;;12.90;63.04
68807;BME280;55800;54.272;18.558;2023-04-12T09:11:24;100278.13;;;13.01;62.86
68807;BME280;55800;54.272;18.558;2023-04-12T09:13:54;100277.44;;;13.13;62.55
68807;BME280;55800;54.272;18.558;2023-04-12T09:16:37;100275.97;;;13.23;62.55
68807;BME280;55800;54.272;18.558;2023-04-12T09:19:07;100276.75;;;13.25;62.43
68807;BME280;55800;54.272;18.558;2023-04-12T09:21:36;100278.28;;;13.29;62.58
68807;BME280;55800;54.272;18.558;2023-04-12T09:24:19;100278.97;;;13.32;62.31
68807;BME280;55800;54.272;18.558;2023-04-12T09:26:59;100274.78;;;13.43;62.25
68807;BME280;55800;54.272;18.558;2023-04-12T09:29:29;100277.03;;;13.50;61.95
68807;BME280;55800;54.272;18.558;2023-04-12T09:32:02;100277.91;;;13.51;62.00
68807;BME280;55800;54.272;18.558;2023-04-12T09:34:32;100280.28;;;13.55;61.95
68807;BME280;55800;54.272;18.558;2023-04-12T09:37:11;100281.88;;;13.59;61.83
68807;BME280;55800;54.272;18.558;2023-04-12T09:39:40;100270.88;;;13.48;61.71
68807;BME280;55800;54.272;18.558;2023-04-12T09:42:10;100283.94;;;13.54;61.83
68807;BME280;55800;54.272;18.558;2023-04-12T09:45:00;100278.25;;;13.45;61.81
68807;BME280;55800;54.272;18.558;2023-04-12T09:47:38;100277.97;;;13.49;61.82
68807;BME280;55800;54.272;18.558;2023-04-12T09:50:08;100273.38;;;13.51;61.69
68807;BME280;55800;54.272;18.558;2023-04-12T09:52:47;100279.63;;;13.52;61.49
68807;BME280;55800;54.272;18.558;2023-04-12T09:55:16;100273.72;;;13.61;61.52
68807;BME280;55800;54.272;18.558;2023-04-12T09:57:46;100270.25;;;13.59;61.74
68807;BME280;55800;54.272;18.558;2023-04-12T10:00:18;100272.56;;;13.65;61.56
68807;BME280;55800;54.272;18.558;2023-04-12T10:02:51;100274.38;;;13.64;61.91
68807;BME280;55800;54.272;18.558;2023-04-12T10:05:22;100267.78;;;13.70;61.42
68807;BME280;55800;54.272;18.558;2023-04-12T10:07:53;100261.56;;;13.69;61.57
68807;BME280;55800;54.272;18.558;2023-04-12T10:10:25;100267.50;;;13.74;61.47
68807;BME280;55800;54.272;18.558;2023-04-12T10:12:54;100264.63;;;13.77;61.42
68807;BME280;55800;54.272;18.558;2023-04-12T10:15:23;100262.53;;;13.82;61.36
68807;BME280;55800;54.272;18.558;2023-04-12T10:18:03;100248.63;;;13.90;61.38
68807;BME280;55800;54.272;18.558;2023-04-12T10:20:34;100255.03;;;13.87;61.44
68807;BME280;55800;54.272;18.558;2023-04-12T10:23:05;100253.34;;;13.86;61.12
68807;BME280;55800;54.272;18.558;2023-04-12T10:25:35;100261.88;;;13.93;60.78
68807;BME280;55800;54.272;18.558;2023-04-12T10:28:12;100257.84;;;13.86;61.16
68807;BME280;55800;54.272;18.558;2023-04-12T10:30:43;100263.81;;;13.91;61.12
68807;BME280;55800;54.272;18.558;2023-04-12T10:33:14;100250.53;;;13.88;60.82
68807;BME280;55800;54.272;18.558;2023-04-12T10:35:48;100249.66;;;13.87;60.84
68807;BME280;55800;54.272;18.558;2023-04-12T10:38:18;100254.38;;;13.84;60.65
68807;BME280;55800;54.272;18.558;2023-04-12T10:43:50;100246.81;;;13.90;61.04
68807;BME280;55800;54.272;18.558;2023-04-12T10:49:11;100258.50;;;13.89;60.44
68807;BME280;55800;54.272;18.558;2023-04-12T10:54:30;100245.16;;;13.88;60.17
68807;BME280;55800;54.272;18.558;2023-04-12T10:57:02;100248.63;;;13.90;59.79
68807;BME280;55800;54.272;18.558;2023-04-12T10:59:49;100247.19;;;13.84;60.18
68807;BME280;55800;54.272;18.558;2023-04-12T11:02:19;100232.00;;;13.83;60.15
68807;BME280;55800;54.272;18.558;2023-04-12T11:05:04;100234.59;;;13.85;60.29
68807;BME280;55800;54.272;18.558;2023-04-12T11:08:08;100228.94;;;13.89;60.26
68807;BME280;55800;54.272;18.558;2023-04-12T11:11:17;100231.47;;;13.92;60.16
68807;BME280;55800;54.272;18.558;2023-04-12T11:13:46;100239.31;;;13.95;60.08
68807;BME280;55800;54.272;18.558;2023-04-12T11:16:15;100223.13;;;13.97;60.03
68807;BME280;55800;54.272;18.558;2023-04-12T11:18:45;100224.81;;;13.98;60.15
68807;BME280;55800;54.272;18.558;2023-04-12T11:21:15;100232.81;;;13.99;60.12
68807;BME280;55800;54.272;18.558;2023-04-12T11:23:44;100230.41;;;13.95;60.15
68807;BME280;55800;54.272;18.558;2023-04-12T11:26:17;100233.00;;;13.96;60.11
68807;BME280;55800;54.272;18.558;2023-04-12T11:28:47;100225.88;;;13.95;60.25
68807;BME280;55800;54.272;18.558;2023-04-12T11:31:20;100228.16;;;13.87;60.06
68807;BME280;55800;54.272;18.558;2023-04-12T11:33:50;100229.72;;;13.91;60.03
68807;BME280;55800;54.272;18.558;2023-04-12T11:36:20;100226.94;;;13.93;60.12
68807;BME280;55800;54.272;18.558;2023-04-12T11:38:49;100226.19;;;13.91;60.00
68807;BME280;55800;54.272;18.558;2023-04-12T11:41:19;100232.69;;;13.87;60.05
68807;BME280;55800;54.272;18.558;2023-04-12T11:43:48;100229.16;;;13.86;60.02
68807;BME280;55800;54.272;18.558;2023-04-12T11:46:17;100230.88;;;13.87;59.66
68807;BME280;55800;54.272;18.558;2023-04-12T11:48:47;100229.81;;;13.76;59.96
68807;BME280;55800;54.272;18.558;2023-04-12T11:51:21;100215.78;;;13.71;60.14
68807;BME280;55800;54.272;18.558;2023-04-12T11:53:52;100225.84;;;13.67;59.84
68807;BME280;55800;54.272;18.558;2023-04-12T11:56:21;100222.47;;;13.64;59.97
68807;BME280;55800;54.272;18.558;2023-04-12T11:58:50;100216.31;;;13.62;59.99
68807;BME280;55800;54.272;18.558;2023-04-12T12:01:20;100215.13;;;13.67;59.88
68807;BME280;55800;54.272;18.558;2023-04-12T12:03:50;100220.09;;;13.59;60.21
68807;BME280;55800;54.272;18.558;2023-04-12T12:06:21;100210.13;;;13.61;60.24
68807;BME280;55800;54.272;18.558;2023-04-12T12:08:51;100206.28;;;13.65;60.05
68807;BME280;55800;54.272;18.558;2023-04-12T12:11:20;100196.38;;;13.66;59.96
68807;BME280;55800;54.272;18.558;2023-04-12T12:13:51;100199.06;;;13.66;59.84
68807;BME280;55800;54.272;18.558;2023-04-12T12:16:23;100190.06;;;13.67;59.92
68807;BME280;55800;54.272;18.558;2023-04-12T12:18:53;100187.84;;;13.59;60.02
68807;BME280;55800;54.272;18.558;2023-04-12T12:21:24;100184.88;;;13.64;59.90
68807;BME280;55800;54.272;18.558;2023-04-12T12:23:54;100179.81;;;13.59;59.99
68807;BME280;55800;54.272;18.558;2023-04-12T12:26:25;100178.94;;;13.59;60.15
68807;BME280;55800;54.272;18.558;2023-04-12T12:28:55;100174.31;;;13.61;59.95
68807;BME280;55800;54.272;18.558;2023-04-12T12:31:27;100170.88;;;13.59;60.02
68807;BME280;55800;54.272;18.558;2023-04-12T12:33:58;100172.84;;;13.55;60.11
68807;BME280;55800;54.272;18.558;2023-04-12T12:36:34;100162.97;;;13.56;60.16
68807;BME280;55800;54.272;18.558;2023-04-12T12:39:06;100161.78;;;13.61;59.91
68807;BME280;55800;54.272;18.558;2023-04-12T12:41:37;100155.41;;;13.62;59.95
68807;BME280;55800;54.272;18.558;2023-04-12T12:44:07;100148.03;;;13.66;59.75
68807;BME280;55800;54.272;18.558;2023-04-12T12:46:38;100151.88;;;13.76;60.08
68807;BME280;55800;54.272;18.558;2023-04-12T12:49:10;100140.84;;;13.80;59.93
68807;BME280;55800;54.272;18.558;2023-04-12T12:51:41;100149.28;;;13.88;59.53
68807;BME280;55800;54.272;18.558;2023-04-12T12:54:10;100136.53;;;13.92;59.80
68807;BME280;55800;54.272;18.558;2023-04-12T12:56:41;100145.53;;;14.05;59.92
68807;BME280;55800;54.272;18.558;2023-04-12T12:59:11;100139.97;;;14.08;60.23
68807;BME280;55800;54.272;18.558;2023-04-12T13:01:40;100140.06;;;14.21;59.75
68807;BME280;55800;54.272;18.558;2023-04-12T13:04:10;100137.78;;;14.29;60.13
68807;BME280;55800;54.272;18.558;2023-04-12T13:06:40;100132.75;;;14.37;59.88
68807;BME280;55800;54.272;18.558;2023-04-12T13:09:10;100137.53;;;14.46;59.90
68807;BME280;55800;54.272;18.558;2023-04-12T13:11:42;100128.66;;;14.58;59.35
68807;BME280;55800;54.272;18.558;2023-04-12T13:14:11;100122.97;;;14.62;59.44
68807;BME280;55800;54.272;18.558;2023-04-12T13:16:39;100122.69;;;14.67;59.73
68807;BME280;55800;54.272;18.558;2023-04-12T13:19:09;100124.94;;;14.73;60.08